Time;durP1;ratioP1;P1;durP2;ratioP2;P2;SDS_P1;SDS_P2;PMS_P1;PMS_P2;Temp;Humidity;BMP_temperature;BMP_pressure;BME280_temperature;BME280_humidity;BME280_pressure;Samples;Min_cycle;Max_cycle;Signal;HPM_P1;HPM_P2
2021/01/18 00:01:20;;;;;;;15.30;6.43;;;5.70;99.90;;;;;;5094588;28;20293;-79
2021/01/18 00:03:46;;;;;;;15.73;6.43;;;5.80;99.90;;;;;;5094929;28;20211;-79
2021/01/18 00:06:17;;;;;;;20.07;6.17;;;5.70;99.90;;;;;;5094916;28;20258;-79
2021/01/18 00:08:45;;;;;;;19.23;6.60;;;5.70;99.90;;;;;;5094809;28;20200;-79
2021/01/18 00:11:12;;;;;;;19.53;6.70;;;5.60;99.90;;;;;;5095151;28;20211;-79
2021/01/18 00:13:39;;;;;;;17.57;6.60;;;5.70;99.90;;;;;;5094806;28;20208;-79
2021/01/18 00:16:06;;;;;;;25.17;7.87;;;5.70;99.90;;;;;;5098186;28;20200;-79
2021/01/18 00:18:33;;;;;;;21.80;6.70;;;5.60;99.90;;;;;;5102001;28;20669;-79
2021/01/18 00:20:59;;;;;;;18.83;6.93;;;5.60;99.90;;;;;;5100328;28;20582;-79
2021/01/18 00:23:26;;;;;;;19.80;7.23;;;5.40;99.90;;;;;;5094455;28;20618;-79
2021/01/18 00:25:53;;;;;;;20.40;7.17;;;5.40;99.90;;;;;;5095423;28;20230;-79
2021/01/18 00:28:19;;;;;;;16.43;6.53;;;5.30;99.90;;;;;;5095009;28;20200;-79
2021/01/18 00:30:45;;;;;;;23.80;6.93;;;5.10;99.90;;;;;;5094032;28;20200;-79
2021/01/18 00:33:12;;;;;;;21.33;7.40;;;5.00;99.90;;;;;;5094079;28;20575;-79
2021/01/18 00:35:38;;;;;;;17.30;6.93;;;5.00;99.90;;;;;;5092775;28;20645;-79
2021/01/18 00:38:04;;;;;;;23.03;7.80;;;4.90;99.90;;;;;;5094200;28;20204;-79
2021/01/18 00:40:31;;;;;;;18.83;7.67;;;5.00;99.90;;;;;;5093791;28;20242;-79
2021/01/18 00:42:58;;;;;;;14.17;6.83;;;5.00;99.90;;;;;;5093896;28;20286;-79
2021/01/18 00:45:24;;;;;;;26.57;7.30;;;5.10;99.90;;;;;;5095969;28;20275;-79
2021/01/18 00:47:52;;;;;;;19.90;7.10;;;5.10;99.90;;;;;;5109790;28;20289;-79
2021/01/18 00:50:20;;;;;;;19.83;7.90;;;5.20;99.90;;;;;;5106831;28;20629;-79
2021/01/18 00:52:48;;;;;;;19.23;7.13;;;5.10;99.90;;;;;;5108243;28;20204;-79
2021/01/18 00:55:17;;;;;;;22.77;6.73;;;5.10;99.90;;;;;;5100551;28;20196;-79
2021/01/18 00:57:44;;;;;;;18.43;7.00;;;5.10;99.90;;;;;;5093838;28;20196;-79
2021/01/18 01:00:13;;;;;;;19.23;7.57;;;5.00;99.90;;;;;;5094584;28;20208;-79
2021/01/18 01:02:40;;;;;;;19.73;7.33;;;4.90;99.90;;;;;;5107376;28;20199;-80
2021/01/18 01:05:09;;;;;;;20.80;7.30;;;4.80;99.90;;;;;;5095606;28;20204;-80
2021/01/18 01:07:39;;;;;;;29.67;7.87;;;4.80;99.90;;;;;;5093886;28;20228;-80
2021/01/18 01:10:07;;;;;;;21.07;8.07;;;4.90;99.90;;;;;;5093812;28;20216;-80
2021/01/18 01:12:33;;;;;;;15.67;7.27;;;5.00;99.90;;;;;;5093854;28;20196;-80
2021/01/18 01:14:59;;;;;;;22.50;7.40;;;5.00;99.90;;;;;;5093602;28;20619;-79
2021/01/18 01:17:26;;;;;;;23.27;7.33;;;5.00;99.90;;;;;;5093753;28;20193;-80
2021/01/18 01:19:53;;;;;;;17.77;7.77;;;5.00;99.90;;;;;;5093523;28;20690;-79
2021/01/18 01:22:19;;;;;;;23.03;7.73;;;4.90;99.90;;;;;;5093217;28;20585;-80
2021/01/18 01:24:45;;;;;;;21.33;7.60;;;4.90;99.90;;;;;;5093371;28;20209;-80
2021/01/18 01:27:12;;;;;;;21.33;7.57;;;4.80;99.90;;;;;;5093354;28;20298;-80
2021/01/18 01:29:38;;;;;;;19.70;8.27;;;4.80;99.90;;;;;;5093700;28;20651;-80
2021/01/18 01:32:05;;;;;;;19.90;8.00;;;4.80;99.90;;;;;;5093219;28;20209;-78
2021/01/18 01:34:33;;;;;;;16.90;7.43;;;4.80;99.90;;;;;;5093525;28;20214;-80
2021/01/18 01:37:00;;;;;;;25.07;7.73;;;4.80;99.90;;;;;;5093305;28;20205;-79
2021/01/18 01:39:26;;;;;;;19.63;7.90;;;4.80;99.90;;;;;;5093273;28;20280;-79
2021/01/18 01:41:52;;;;;;;21.60;8.23;;;4.80;99.90;;;;;;5093314;28;20216;-80
2021/01/18 01:44:18;;;;;;;26.20;7.87;;;4.80;99.90;;;;;;5092776;28;20564;-79
2021/01/18 01:46:45;;;;;;;24.60;7.70;;;4.90;99.90;;;;;;5092789;28;20232;-79
2021/01/18 01:49:12;;;;;;;27.10;8.43;;;4.90;99.90;;;;;;5092868;28;20218;-80
2021/01/18 01:51:39;;;;;;;27.50;8.53;;;4.80;99.90;;;;;;5093083;28;20567;-80
2021/01/18 01:54:06;;;;;;;28.43;8.13;;;4.90;99.90;;;;;;5093067;28;20240;-80
2021/01/18 01:56:33;;;;;;;25.63;8.40;;;4.80;99.90;;;;;;5093173;28;20197;-80
2021/01/18 01:59:01;;;;;;;32.23;8.87;;;4.80;99.90;;;;;;5092737;28;20221;-80
2021/01/18 02:01:28;;;;;;;21.10;8.27;;;4.80;99.90;;;;;;5092562;28;20210;-79
2021/01/18 02:03:57;;;;;;;23.10;8.70;;;4.80;99.90;;;;;;5092677;28;20207;-79
2021/01/18 02:06:24;;;;;;;19.90;7.67;;;4.80;99.90;;;;;;5092707;28;20224;-79
2021/01/18 02:08:51;;;;;;;23.60;8.30;;;4.80;99.90;;;;;;5092856;28;20199;-79
2021/01/18 02:11:18;;;;;;;29.97;8.80;;;4.70;99.90;;;;;;5092698;28;20203;-79
2021/01/18 02:14:11;;;;;;;25.40;8.40;;;4.60;99.90;;;;;;5092715;28;20203;-80
2021/01/18 02:16:45;;;;;;;28.97;8.97;;;4.60;99.90;;;;;;5087080;28;20210;-79
2021/01/18 02:19:43;;;;;;;25.27;8.47;;;4.50;99.90;;;;;;5092889;28;20206;-80
2021/01/18 02:22:43;;;;;;;22.47;8.20;;;4.60;99.90;;;;;;5092611;28;20195;-79
2021/01/18 02:25:20;;;;;;;26.07;7.70;;;4.60;99.90;;;;;;5092392;28;20660;-79
2021/01/18 02:28:12;;;;;;;22.97;8.90;;;4.60;99.90;;;;;;5092377;28;20231;-79
2021/01/18 02:31:17;;;;;;;16.90;6.80;;;4.70;99.90;;;;;;5092486;28;20223;-79
2021/01/18 02:34:20;;;;;;;24.53;7.87;;;4.70;99.90;;;;;;5092243;28;20203;-79
2021/01/18 02:36:56;;;;;;;20.63;8.40;;;4.60;99.90;;;;;;5092191;28;20197;-79
2021/01/18 02:39:33;;;;;;;30.10;8.43;;;4.60;99.90;;;;;;5092128;28;20197;-80
2021/01/18 02:42:06;;;;;;;25.73;8.47;;;4.50;99.90;;;;;;5092635;28;20207;-80
2021/01/18 02:44:37;;;;;;;15.93;7.23;;;4.50;99.90;;;;;;5092239;28;20207;-80
2021/01/18 02:47:05;;;;;;;18.93;8.00;;;4.50;99.90;;;;;;5092189;28;20227;-80
2021/01/18 02:49:32;;;;;;;24.93;8.37;;;4.50;99.90;;;;;;5092010;28;20219;-80
2021/01/18 02:52:03;;;;;;;24.80;8.10;;;4.30;99.90;;;;;;5092083;28;20206;-80
2021/01/18 02:54:30;;;;;;;21.90;8.03;;;4.30;99.90;;;;;;5092021;28;20203;-79
2021/01/18 02:56:57;;;;;;;24.57;8.77;;;4.40;99.90;;;;;;5092255;28;20203;-79
2021/01/18 02:59:24;;;;;;;23.23;8.23;;;4.30;99.90;;;;;;5094107;28;20277;-81
2021/01/18 03:02:34;;;;;;;27.27;9.53;;;4.30;99.90;;;;;;5096256;28;20287;-79
2021/01/18 03:05:12;;;;;;;25.73;8.60;;;4.20;99.90;;;;;;5050277;28;20208;-79
2021/01/18 03:07:50;;;;;;;19.67;8.53;;;4.10;99.90;;;;;;5093318;28;20215;-79
2021/01/18 03:10:21;;;;;;;25.80;8.67;;;4.20;99.90;;;;;;5095739;28;20566;-79
2021/01/18 03:12:58;;;;;;;18.73;8.47;;;4.20;99.90;;;;;;5096058;28;20211;-79
2021/01/18 03:15:28;;;;;;;22.77;7.77;;;4.20;99.90;;;;;;5095977;28;20250;-79
2021/01/18 03:17:57;;;;;;;26.13;8.90;;;4.20;99.90;;;;;;5096165;28;20209;-80
2021/01/18 03:20:24;;;;;;;22.17;7.87;;;4.10;99.90;;;;;;5095831;28;20202;-80
2021/01/18 03:22:52;;;;;;;26.00;8.17;;;4.10;99.90;;;;;;5096295;28;20672;-80
2021/01/18 03:25:18;;;;;;;21.87;8.07;;;4.20;99.90;;;;;;5095658;28;20547;-79
2021/01/18 03:27:52;;;;;;;25.83;8.13;;;4.20;99.90;;;;;;5095569;28;20701;-79
2021/01/18 03:30:21;;;;;;;27.73;8.17;;;4.10;99.90;;;;;;5095436;28;20216;-79
2021/01/18 03:32:48;;;;;;;19.97;8.10;;;4.10;99.90;;;;;;5095495;28;20576;-80
2021/01/18 03:35:15;;;;;;;20.20;7.60;;;4.00;99.90;;;;;;5095648;28;20262;-80
2021/01/18 03:37:42;;;;;;;20.20;7.77;;;4.10;99.90;;;;;;5095563;28;20209;-79
2021/01/18 03:40:09;;;;;;;23.83;8.33;;;4.00;99.90;;;;;;5095418;28;20209;-80
2021/01/18 03:42:36;;;;;;;24.17;8.03;;;4.00;99.90;;;;;;5095184;28;20610;-80
2021/01/18 03:45:03;;;;;;;23.40;8.17;;;4.00;99.90;;;;;;5095315;28;20213;-80
2021/01/18 03:47:29;;;;;;;25.13;9.33;;;4.00;99.90;;;;;;5094920;28;20224;-79
2021/01/18 03:49:56;;;;;;;27.37;9.07;;;4.00;99.90;;;;;;5099904;28;20209;-79
2021/01/18 03:52:22;;;;;;;23.00;8.87;;;4.00;99.90;;;;;;5114513;28;20219;-79
2021/01/18 03:54:48;;;;;;;23.83;8.97;;;4.00;99.90;;;;;;5115439;28;20639;-80
2021/01/18 03:57:15;;;;;;;21.83;8.10;;;3.90;99.90;;;;;;5115361;28;20200;-80
2021/01/18 03:59:42;;;;;;;21.70;8.83;;;3.90;99.90;;;;;;5115282;28;20260;-80
2021/01/18 04:02:08;;;;;;;25.33;8.90;;;3.80;99.90;;;;;;5115005;28;20204;-80
2021/01/18 04:04:34;;;;;;;24.67;8.80;;;3.90;99.90;;;;;;5115461;28;20209;-79
2021/01/18 04:07:01;;;;;;;19.83;8.43;;;3.90;99.90;;;;;;5114915;28;20224;-80
2021/01/18 04:09:27;;;;;;;20.30;8.33;;;3.80;99.90;;;;;;5115112;28;20200;-80
2021/01/18 04:11:53;;;;;;;26.20;8.47;;;3.80;99.90;;;;;;5114056;28;20696;-80
2021/01/18 04:14:20;;;;;;;19.57;9.37;;;3.80;99.90;;;;;;5115039;28;20210;-80
2021/01/18 04:16:47;;;;;;;29.63;9.23;;;3.70;99.90;;;;;;5115200;28;20211;-80
2021/01/18 04:19:13;;;;;;;30.70;10.30;;;3.70;99.90;;;;;;5114864;28;20199;-80
2021/01/18 04:21:39;;;;;;;23.47;9.10;;;3.70;99.90;;;;;;5115244;28;20203;-79
2021/01/18 04:24:06;;;;;;;30.70;8.70;;;3.60;99.90;;;;;;5114938;28;20244;-79
2021/01/18 04:26:33;;;;;;;29.87;10.00;;;3.60;99.90;;;;;;5114850;28;20299;-80
2021/01/18 04:28:59;;;;;;;21.67;9.37;;;3.50;99.90;;;;;;5114937;28;20211;-79
2021/01/18 04:31:26;;;;;;;29.40;9.50;;;3.50;99.90;;;;;;5114554;28;20539;-80
2021/01/18 04:33:52;;;;;;;31.63;10.03;;;3.50;99.90;;;;;;5115188;28;20206;-80
2021/01/18 04:36:19;;;;;;;30.17;9.03;;;3.50;99.90;;;;;;5115943;28;20190;-80
2021/01/18 04:38:45;;;;;;;29.97;9.77;;;3.40;99.90;;;;;;5116131;28;20198;-80
2021/01/18 04:41:11;;;;;;;25.30;9.30;;;3.40;99.90;;;;;;5115000;28;20571;-80
2021/01/18 04:43:40;;;;;;;25.50;9.47;;;3.40;99.90;;;;;;5111308;28;20212;-80
2021/01/18 04:46:10;;;;;;;30.80;9.77;;;3.30;99.90;;;;;;5110484;28;20227;-79
2021/01/18 04:48:38;;;;;;;20.10;9.27;;;3.30;99.90;;;;;;5112106;28;20291;-80
2021/01/18 04:51:06;;;;;;;32.97;11.03;;;3.40;99.90;;;;;;5114487;28;20197;-80
2021/01/18 04:53:33;;;;;;;24.23;9.93;;;3.40;99.90;;;;;;5114573;28;20210;-80
2021/01/18 04:56:12;;;;;;;34.67;10.53;;;3.40;99.90;;;;;;5114464;28;20597;-79
2021/01/18 04:58:39;;;;;;;32.13;8.60;;;3.40;99.90;;;;;;5114480;28;20291;-79
2021/01/18 05:01:06;;;;;;;28.33;9.77;;;3.40;99.90;;;;;;5114486;28;20203;-80
2021/01/18 05:03:35;;;;;;;24.23;9.07;;;3.40;99.90;;;;;;5114388;28;20315;-80
2021/01/18 05:06:36;;;;;;;25.00;9.40;;;3.40;99.90;;;;;;5114457;28;20278;-79
2021/01/18 05:09:26;;;;;;;27.70;9.53;;;3.40;99.90;;;;;;5114139;28;20256;-80
2021/01/18 05:11:52;;;;;;;32.93;9.97;;;3.40;99.90;;;;;;5114264;28;20208;-80
2021/01/18 05:14:19;;;;;;;29.10;10.30;;;3.50;99.90;;;;;;5114164;28;20199;-79
2021/01/18 05:16:51;;;;;;;28.50;10.40;;;3.40;99.90;;;;;;5113884;28;20620;-80
2021/01/18 05:19:19;;;;;;;29.30;10.17;;;3.40;99.90;;;;;;5113623;28;20203;-81
2021/01/18 05:21:47;;;;;;;38.97;14.27;;;3.50;99.90;;;;;;5112733;28;20445;-80
2021/01/18 05:24:16;;;;;;;33.10;11.17;;;3.60;99.90;;;;;;5114041;28;20308;-80
2021/01/18 05:26:43;;;;;;;33.87;10.60;;;3.60;99.90;;;;;;5113599;28;20591;-80
2021/01/18 05:29:09;;;;;;;34.67;10.70;;;3.70;99.90;;;;;;5100513;28;20693;-80
2021/01/18 05:31:37;;;;;;;26.93;9.30;;;3.70;99.90;;;;;;5113250;28;20199;-79
2021/01/18 05:34:05;;;;;;;29.07;9.70;;;3.70;99.90;;;;;;5102081;28;20668;-79
2021/01/18 05:36:39;;;;;;;35.83;10.73;;;3.70;99.90;;;;;;5112871;28;20637;-79
2021/01/18 05:39:15;;;;;;;29.33;10.40;;;3.70;99.90;;;;;;5112948;28;20283;-79
2021/01/18 05:41:42;;;;;;;29.57;9.53;;;3.70;99.90;;;;;;5099017;28;20716;-79
2021/01/18 05:44:09;;;;;;;27.47;9.40;;;3.70;99.90;;;;;;5095722;28;20676;-80
2021/01/18 05:46:37;;;;;;;35.80;10.23;;;3.70;99.90;;;;;;5113509;28;20362;-79
2021/01/18 05:49:12;;;;;;;24.37;9.70;;;3.70;99.90;;;;;;5113276;28;20203;-80
2021/01/18 05:51:39;;;;;;;27.13;8.70;;;3.70;99.90;;;;;;5109701;28;20203;-80
2021/01/18 05:54:10;;;;;;;31.20;10.30;;;3.70;99.90;;;;;;5107332;28;20289;-79
2021/01/18 05:56:42;;;;;;;32.53;10.30;;;3.60;99.90;;;;;;5098399;28;20608;-79
2021/01/18 05:59:17;;;;;;;28.90;9.70;;;3.60;99.90;;;;;;5102459;28;20564;-80
2021/01/18 06:01:44;;;;;;;29.00;9.53;;;3.70;99.90;;;;;;5093711;28;20211;-80
2021/01/18 06:04:12;;;;;;;28.83;9.17;;;3.80;99.90;;;;;;5093683;28;20208;-79
2021/01/18 06:06:39;;;;;;;22.80;8.73;;;3.80;99.90;;;;;;5098374;28;20220;-79
2021/01/18 06:09:05;;;;;;;24.63;8.53;;;3.80;99.90;;;;;;5099876;28;20291;-79
2021/01/18 06:11:32;;;;;;;27.70;9.40;;;3.80;99.90;;;;;;5098465;28;20203;-80
2021/01/18 06:14:01;;;;;;;32.03;10.03;;;3.80;99.90;;;;;;5098675;28;20649;-79
2021/01/18 06:16:29;;;;;;;31.93;9.00;;;3.90;99.90;;;;;;5093666;28;20239;-79
2021/01/18 06:19:04;;;;;;;33.20;9.33;;;3.80;99.90;;;;;;5090836;28;20221;-79
2021/01/18 06:21:39;;;;;;;23.93;9.37;;;3.70;99.90;;;;;;5097911;28;20336;-80
2021/01/18 06:24:16;;;;;;;27.40;9.73;;;3.80;99.90;;;;;;5098316;28;20285;-79
2021/01/18 06:26:42;;;;;;;24.63;8.63;;;3.80;99.90;;;;;;5099296;28;20238;-79
2021/01/18 06:29:09;;;;;;;26.70;8.93;;;3.80;99.90;;;;;;5095130;28;20204;-80
2021/01/18 06:31:45;;;;;;;29.57;8.97;;;3.80;99.90;;;;;;5092828;28;20205;-79
2021/01/18 06:34:26;;;;;;;23.63;8.63;;;3.80;99.90;;;;;;5095251;28;20253;-80
2021/01/18 06:36:55;;;;;;;29.40;9.00;;;3.70;99.90;;;;;;5113117;28;20217;-80
2021/01/18 06:39:24;;;;;;;28.37;8.67;;;3.80;99.90;;;;;;5113238;28;20226;-80
2021/01/18 06:41:56;;;;;;;28.77;9.13;;;3.70;99.90;;;;;;5097884;28;20305;-78
2021/01/18 06:44:37;;;;;;;32.40;8.93;;;3.70;99.90;;;;;;5103097;28;20344;-80
2021/01/18 06:47:23;;;;;;;24.80;8.97;;;3.80;99.90;;;;;;5113797;28;20214;-80
2021/01/18 06:49:53;;;;;;;22.20;8.37;;;3.80;99.90;;;;;;5114734;28;20570;-79
2021/01/18 06:52:25;;;;;;;22.57;7.97;;;3.70;99.90;;;;;;5096694;28;20198;-80
2021/01/18 06:54:58;;;;;;;24.47;8.20;;;3.70;99.90;;;;;;5106076;28;20208;-79
2021/01/18 06:57:45;;;;;;;24.03;8.00;;;3.60;99.90;;;;;;5116463;28;20203;-79
2021/01/18 07:00:15;;;;;;;30.30;8.40;;;3.70;99.90;;;;;;5116266;28;20271;-79
2021/01/18 07:02:54;;;;;;;22.17;7.80;;;3.60;99.90;;;;;;5116147;28;20207;-79
2021/01/18 07:05:37;;;;;;;26.13;8.20;;;3.60;99.90;;;;;;5116570;28;20674;-79
2021/01/18 07:08:15;;;;;;;18.27;7.73;;;3.60;99.90;;;;;;5116522;28;20223;-79
2021/01/18 07:10:45;;;;;;;24.77;8.10;;;3.50;99.90;;;;;;5116432;28;20551;-79
2021/01/18 07:13:11;;;;;;;24.47;8.13;;;3.60;99.90;;;;;;5095974;28;20576;-79
2021/01/18 07:15:40;;;;;;;23.50;8.57;;;3.60;99.90;;;;;;5095679;28;20220;-79
2021/01/18 07:18:08;;;;;;;23.03;7.77;;;3.60;99.90;;;;;;5095837;28;20198;-79
2021/01/18 07:20:40;;;;;;;18.63;7.77;;;3.70;99.90;;;;;;5095714;28;20201;-79
2021/01/18 07:23:31;;;;;;;24.43;7.80;;;3.50;99.90;;;;;;5095892;28;20214;-79
2021/01/18 07:26:07;;;;;;;27.17;8.20;;;3.50;99.90;;;;;;5099101;28;20237;-80
2021/01/18 07:28:34;;;;;;;17.07;7.47;;;3.50;99.90;;;;;;5113618;28;20209;-79
2021/01/18 07:31:01;;;;;;;23.87;9.47;;;3.50;99.90;;;;;;5111737;28;20199;-79
2021/01/18 07:33:28;;;;;;;19.83;8.37;;;3.40;99.90;;;;;;5108483;28;20241;-79
2021/01/18 07:35:54;;;;;;;23.13;8.33;;;3.50;99.90;;;;;;5115622;28;20202;-79
2021/01/18 07:38:24;;;;;;;19.50;8.10;;;3.50;99.90;;;;;;5115377;28;20558;-80
2021/01/18 07:41:13;;;;;;;26.27;9.00;;;3.50;99.90;;;;;;5115806;28;20195;-79
2021/01/18 07:43:42;;;;;;;25.33;8.87;;;3.50;99.90;;;;;;5115510;28;20218;-79
2021/01/18 07:46:37;;;;;;;23.20;8.17;;;3.60;99.90;;;;;;5095479;28;20210;-80
2021/01/18 07:49:43;;;;;;;30.83;8.77;;;3.60;99.90;;;;;;5095309;28;20250;-79
2021/01/18 07:52:29;;;;;;;28.73;8.10;;;3.70;99.90;;;;;;5110569;28;20673;-79
2021/01/18 07:54:56;;;;;;;27.57;8.37;;;3.60;99.90;;;;;;5115638;28;20194;-79
2021/01/18 07:57:38;;;;;;;26.93;8.33;;;3.70;99.90;;;;;;5114943;28;20199;-80
2021/01/18 08:00:37;;;;;;;23.90;9.00;;;3.60;99.90;;;;;;5115337;28;20192;-79
2021/01/18 08:03:28;;;;;;;26.67;8.13;;;3.70;99.90;;;;;;5096957;28;20204;-79
2021/01/18 08:06:09;;;;;;;22.80;8.47;;;3.70;99.90;;;;;;5115204;28;20197;-79
2021/01/18 08:08:37;;;;;;;26.67;8.37;;;3.80;99.90;;;;;;5115287;28;20192;-79
2021/01/18 08:11:15;;;;;;;20.37;7.90;;;3.80;99.90;;;;;;5114619;28;20669;-79
2021/01/18 08:13:55;;;;;;;19.67;7.63;;;3.80;99.90;;;;;;5115178;28;20195;-79
2021/01/18 08:16:30;;;;;;;23.27;7.63;;;3.90;99.90;;;;;;5115159;28;20227;-79
2021/01/18 08:19:08;;;;;;;16.60;8.00;;;4.00;99.90;;;;;;5115152;28;20573;-79
2021/01/18 08:21:45;;;;;;;25.47;7.60;;;4.10;99.90;;;;;;5114937;28;20199;-79
2021/01/18 08:24:15;;;;;;;18.63;7.00;;;4.20;99.90;;;;;;5114833;28;20331;-79
2021/01/18 08:26:54;;;;;;;26.52;9.27;;;4.20;99.90;;;;;;5114298;28;20454;-79
2021/01/18 08:29:40;;;;;;;23.43;8.57;;;4.30;99.90;;;;;;5114735;28;20254;-78
2021/01/18 08:32:36;;;;;;;25.10;8.43;;;4.30;99.90;;;;;;5114988;28;20196;-79
2021/01/18 08:35:06;;;;;;;22.57;7.17;;;4.30;99.90;;;;;;5114289;28;20656;-79
2021/01/18 08:37:33;;;;;;;18.90;6.57;;;4.30;99.90;;;;;;5114577;28;20287;-79
2021/01/18 08:40:02;;;;;;;22.57;7.10;;;4.40;99.90;;;;;;5114801;28;20199;-79
2021/01/18 08:42:30;;;;;;;18.07;6.73;;;4.50;99.90;;;;;;5114516;28;20200;-79
2021/01/18 08:44:58;;;;;;;27.97;7.17;;;4.60;99.90;;;;;;5114345;28;20264;-79
2021/01/18 08:47:34;;;;;;;17.93;6.80;;;4.60;99.90;;;;;;5114292;28;20738;-79
2021/01/18 08:50:18;;;;;;;17.93;6.57;;;4.70;99.90;;;;;;5114464;28;20198;-79
2021/01/18 08:52:45;;;;;;;26.00;6.70;;;4.70;99.90;;;;;;5114275;28;20623;-79
2021/01/18 08:55:42;;;;;;;24.93;7.23;;;4.70;99.90;;;;;;5114066;28;20210;-79
2021/01/18 08:58:08;;;;;;;15.97;5.80;;;4.90;99.90;;;;;;5112413;28;20196;-79
2021/01/18 09:00:42;;;;;;;19.67;5.83;;;4.90;99.90;;;;;;5113709;28;20210;-79
2021/01/18 09:03:10;;;;;;;19.43;5.20;;;4.90;99.90;;;;;;5113423;28;20685;-79
2021/01/18 09:05:38;;;;;;;16.83;5.77;;;4.90;99.90;;;;;;5114045;28;20684;-79
2021/01/18 09:08:08;;;;;;;18.40;5.17;;;5.10;99.90;;;;;;5113981;28;20218;-79
2021/01/18 09:10:35;;;;;;;16.20;5.50;;;5.10;99.90;;;;;;5113798;28;20206;-79
2021/01/18 09:13:04;;;;;;;24.63;5.30;;;5.10;99.90;;;;;;5113772;28;20534;-79
2021/01/18 09:15:31;;;;;;;15.80;5.27;;;5.20;99.90;;;;;;5113920;28;20196;-79
2021/01/18 09:18:03;;;;;;;16.47;5.43;;;5.10;99.90;;;;;;5113911;28;20617;-79
2021/01/18 09:20:29;;;;;;;18.77;5.87;;;5.20;99.90;;;;;;5114175;28;20240;-79
2021/01/18 09:23:04;;;;;;;18.47;4.83;;;5.20;99.90;;;;;;5113343;28;20670;-78
2021/01/18 09:25:32;;;;;;;17.93;5.73;;;5.40;99.90;;;;;;5113813;28;20187;-79
2021/01/18 09:28:03;;;;;;;13.37;4.77;;;5.30;99.90;;;;;;5113343;28;20638;-79
2021/01/18 09:30:30;;;;;;;16.53;4.93;;;5.50;99.90;;;;;;5093069;28;20663;-79
2021/01/18 09:32:58;;;;;;;11.57;4.83;;;5.60;99.90;;;;;;5113028;28;20672;-79
2021/01/18 09:35:26;;;;;;;11.40;4.77;;;5.70;99.90;;;;;;5113537;28;20203;-79
2021/01/18 09:37:54;;;;;;;16.00;4.80;;;5.70;99.90;;;;;;5113511;28;20203;-79
2021/01/18 09:40:21;;;;;;;19.13;5.30;;;5.70;99.90;;;;;;5113716;28;20206;-79
2021/01/18 09:42:52;;;;;;;15.93;4.80;;;5.80;99.90;;;;;;5113726;28;20203;-79
2021/01/18 09:45:18;;;;;;;19.27;5.17;;;5.90;99.90;;;;;;5113032;28;20211;-79
2021/01/18 09:47:45;;;;;;;15.63;4.93;;;5.90;99.90;;;;;;5112597;28;20700;-79
2021/01/18 09:50:13;;;;;;;16.40;5.03;;;6.00;99.90;;;;;;5112827;28;20208;-79
2021/01/18 09:52:41;;;;;;;13.93;4.90;;;6.00;99.90;;;;;;5112910;28;20656;-79
2021/01/18 09:55:15;;;;;;;18.60;5.17;;;6.10;99.90;;;;;;5113411;28;20204;-79
2021/01/18 09:57:47;;;;;;;16.93;4.60;;;6.20;99.90;;;;;;5112964;28;20203;-79
2021/01/18 10:00:15;;;;;;;16.43;4.93;;;6.20;99.90;;;;;;5113062;28;20210;-79
2021/01/18 10:02:44;;;;;;;17.23;4.73;;;6.20;99.90;;;;;;5112750;28;20193;-79
2021/01/18 10:05:13;;;;;;;17.10;4.93;;;6.20;99.90;;;;;;5112794;28;20211;-79
2021/01/18 10:07:48;;;;;;;12.37;4.50;;;6.30;99.90;;;;;;5113158;28;20211;-79
2021/01/18 10:10:15;;;;;;;12.00;3.97;;;6.30;99.90;;;;;;5112731;28;20189;-79
2021/01/18 10:12:49;;;;;;;15.93;5.10;;;6.50;99.90;;;;;;5113002;28;20198;-79
2021/01/18 10:15:28;;;;;;;18.80;5.07;;;6.50;99.90;;;;;;5112617;28;20577;-79
2021/01/18 10:17:55;;;;;;;12.63;4.37;;;6.50;99.90;;;;;;5112949;28;20290;-79
2021/01/18 10:20:28;;;;;;;12.37;4.20;;;6.60;99.90;;;;;;5098403;28;20194;-79
2021/01/18 10:22:55;;;;;;;16.90;5.00;;;6.80;99.90;;;;;;5093297;28;20708;-79
2021/01/18 10:25:26;;;;;;;16.70;4.20;;;7.00;99.90;;;;;;5109971;28;20200;-80
2021/01/18 10:27:54;;;;;;;19.70;4.43;;;7.10;99.90;;;;;;5101272;28;20732;-79
2021/01/18 10:30:23;;;;;;;16.27;4.60;;;7.10;99.90;;;;;;5092662;28;20220;-79
2021/01/18 10:32:51;;;;;;;15.70;4.23;;;7.10;99.90;;;;;;5091492;28;20195;-78
2021/01/18 10:35:29;;;;;;;19.00;4.13;;;7.10;99.90;;;;;;5097583;28;20200;-79
2021/01/18 10:38:14;;;;;;;15.13;4.13;;;7.10;99.90;;;;;;5092617;28;20223;-79
2021/01/18 10:40:42;;;;;;;12.60;4.10;;;7.10;99.90;;;;;;5091468;28;20208;-79
2021/01/18 10:43:12;;;;;;;15.53;4.80;;;7.20;99.90;;;;;;5091914;28;20679;-79
2021/01/18 10:45:42;;;;;;;13.70;4.53;;;7.30;99.90;;;;;;5105123;28;20259;-79
2021/01/18 10:48:10;;;;;;;17.37;4.77;;;7.30;99.90;;;;;;5112637;28;20276;-80
2021/01/18 10:50:36;;;;;;;13.47;4.40;;;7.40;99.90;;;;;;5112380;28;20199;-80
2021/01/18 10:53:05;;;;;;;10.63;4.03;;;7.40;99.90;;;;;;5112018;28;20295;-80
2021/01/18 10:55:32;;;;;;;14.13;4.97;;;7.40;99.90;;;;;;5111334;28;20213;-80
2021/01/18 10:57:58;;;;;;;15.53;4.97;;;7.50;99.90;;;;;;5111976;28;20200;-80
2021/01/18 11:00:27;;;;;;;11.57;3.90;;;7.50;99.90;;;;;;5112087;28;20222;-80
2021/01/18 11:02:58;;;;;;;14.57;4.60;;;7.40;99.90;;;;;;5112163;28;20207;-80
2021/01/18 11:05:35;;;;;;;13.33;4.30;;;7.40;99.90;;;;;;5112033;28;20225;-79
2021/01/18 11:08:04;;;;;;;12.93;3.97;;;7.50;99.90;;;;;;5112306;28;20256;-79
2021/01/18 11:10:32;;;;;;;15.67;4.73;;;7.40;99.90;;;;;;5112083;28;20655;-79
2021/01/18 11:13:08;;;;;;;20.70;5.43;;;7.50;99.90;;;;;;5110311;28;20302;-79
2021/01/18 11:15:38;;;;;;;14.13;4.70;;;7.60;99.90;;;;;;5111817;28;20273;-80
2021/01/18 11:18:06;;;;;;;11.77;4.63;;;7.70;99.90;;;;;;5112427;28;20644;-80
2021/01/18 11:20:33;;;;;;;20.60;4.87;;;7.70;99.90;;;;;;5107941;28;20201;-79
2021/01/18 11:23:00;;;;;;;16.10;4.67;;;7.80;99.90;;;;;;5101894;28;20568;-80
2021/01/18 11:25:29;;;;;;;13.00;4.43;;;7.80;99.90;;;;;;5095088;28;20660;-80
2021/01/18 11:28:07;;;;;;;13.23;4.27;;;7.90;99.90;;;;;;5101667;28;20305;-79
2021/01/18 11:30:33;;;;;;;12.47;4.80;;;8.10;99.90;;;;;;5122601;28;20219;-80
2021/01/18 11:33:00;;;;;;;16.50;4.90;;;8.20;99.90;;;;;;5117979;28;20788;-79
2021/01/18 11:35:26;;;;;;;14.27;4.37;;;8.40;99.90;;;;;;5115771;28;20568;-80
2021/01/18 11:37:53;;;;;;;17.73;4.80;;;8.40;99.90;;;;;;5115808;28;20286;-80
2021/01/18 11:40:20;;;;;;;17.83;4.90;;;8.40;99.90;;;;;;5115485;28;20204;-79
2021/01/18 11:42:46;;;;;;;14.80;4.77;;;8.50;99.90;;;;;;5115457;28;20196;-78
2021/01/18 11:45:13;;;;;;;17.93;4.63;;;8.60;99.90;;;;;;5115030;28;20207;-80
2021/01/18 11:47:40;;;;;;;19.20;5.33;;;8.60;99.90;;;;;;5105938;28;20280;-80
2021/01/18 11:50:09;;;;;;;20.33;5.07;;;8.70;99.90;;;;;;5095357;28;20209;-80
2021/01/18 11:52:41;;;;;;;16.70;5.40;;;8.70;99.90;;;;;;5094536;28;20208;-80
2021/01/18 11:55:09;;;;;;;20.50;5.37;;;8.60;99.90;;;;;;5095163;28;20200;-79
2021/01/18 11:57:35;;;;;;;16.30;5.10;;;8.40;99.90;;;;;;5095726;28;20218;-79
2021/01/18 12:00:02;;;;;;;13.40;4.83;;;8.30;99.90;;;;;;5114863;28;20298;-79
2021/01/18 12:02:28;;;;;;;13.53;4.20;;;8.30;99.90;;;;;;5114896;28;20682;-79
2021/01/18 12:04:54;;;;;;;14.90;5.13;;;8.20;99.90;;;;;;5114840;28;20207;-79
2021/01/18 12:07:22;;;;;;;18.50;4.70;;;8.00;99.90;;;;;;5114535;28;20706;-80
2021/01/18 12:09:48;;;;;;;14.87;4.50;;;8.10;99.90;;;;;;5115031;28;20195;-79
2021/01/18 12:12:16;;;;;;;14.53;4.53;;;8.00;99.90;;;;;;5114776;28;20211;-79
2021/01/18 12:14:42;;;;;;;14.53;4.33;;;8.00;99.90;;;;;;5114934;28;20201;-80
2021/01/18 12:17:09;;;;;;;18.20;4.90;;;8.00;99.90;;;;;;5114639;28;20201;-79
2021/01/18 12:19:35;;;;;;;14.53;4.47;;;8.10;99.90;;;;;;5113801;28;20237;-79
2021/01/18 12:22:02;;;;;;;12.97;3.97;;;8.10;99.90;;;;;;5096874;28;20216;-80
2021/01/18 12:24:29;;;;;;;15.30;4.80;;;8.00;99.90;;;;;;5114907;28;20196;-80
2021/01/18 12:26:55;;;;;;;14.60;4.73;;;8.00;99.90;;;;;;5113991;28;20250;-79
2021/01/18 12:29:22;;;;;;;19.07;5.13;;;8.00;99.90;;;;;;5114572;28;20671;-80
2021/01/18 12:31:49;;;;;;;44.50;10.17;;;8.10;99.90;;;;;;5113002;28;20195;-80
2021/01/18 12:34:15;;;;;;;34.37;8.23;;;8.10;99.90;;;;;;5114151;28;20206;-79
2021/01/18 12:36:42;;;;;;;19.77;5.53;;;8.10;99.90;;;;;;5114662;28;20199;-80
2021/01/18 12:39:10;;;;;;;16.50;4.43;;;8.10;99.90;;;;;;5114887;28;20511;-80
2021/01/18 12:41:38;;;;;;;15.27;4.90;;;8.10;99.90;;;;;;5114479;28;20226;-79
2021/01/18 12:44:05;;;;;;;20.20;4.87;;;8.00;99.90;;;;;;5114273;28;20212;-80
2021/01/18 12:46:32;;;;;;;15.30;4.53;;;8.00;99.90;;;;;;5114088;28;20665;-80
2021/01/18 12:48:58;;;;;;;12.97;5.03;;;8.00;99.90;;;;;;5114242;28;20223;-79
2021/01/18 12:51:25;;;;;;;14.87;5.13;;;8.10;99.90;;;;;;5114010;28;20211;-79
2021/01/18 12:53:51;;;;;;;18.10;5.10;;;8.10;99.90;;;;;;5114219;28;20571;-79
2021/01/18 12:56:25;;;;;;;14.60;4.87;;;8.20;99.90;;;;;;5114068;28;20204;-79
2021/01/18 12:58:53;;;;;;;19.00;4.90;;;8.30;99.90;;;;;;5114400;28;20191;-79
2021/01/18 13:01:27;;;;;;;20.33;4.93;;;8.40;99.90;;;;;;5114252;28;20192;-79
2021/01/18 13:03:53;;;;;;;18.03;4.33;;;8.40;99.90;;;;;;5113825;28;20211;-79